Time;durP1;ratioP1;P1;durP2;ratioP2;P2;SDS_P1;SDS_P2;PMS_P1;PMS_P2;Temp;Humidity;BMP_temperature;BMP_pressure;BME280_temperature;BME280_humidity;BME280_pressure;Samples;Min_cycle;Max_cycle;Signal;HPM_P1;HPM_P2
2022/02/07 00:01:00;;;;;;;;;;;;;;;;;;4813593;28;19952;-70
2022/02/07 00:03:45;;;;;;;;;;;;;;;;;;4781717;28;20780;-69
2022/02/07 00:06:12;;;;;;;;;;;;;;;;;;4802946;28;19918;-70
2022/02/07 00:08:38;;;;;;;;;;;;;;;;;;4815439;28;19933;-70
2022/02/07 00:11:04;;;;;;;;;;;;;;;;;;4802138;28;20950;-70
2022/02/07 00:13:30;;;;;;;;;;;;;;;;;;4785640;28;20016;-70
2022/02/07 00:15:56;;;;;;;;;;;;;;;;;;4798811;28;19983;-70
2022/02/07 00:18:23;;;;;;;;;;;;;;;;;;4795711;28;20055;-71
2022/02/07 00:20:49;;;;;;;;;;;;;;;;;;4783101;28;19917;-69
2022/02/07 00:23:15;;;;;;;;;;;;;;;;;;4801292;28;20008;-69
2022/02/07 00:25:41;;;;;;;;;;;;;;;;;;4801110;28;21252;-70
2022/02/07 00:28:07;;;;;;;;;;;;;;;;;;4801361;28;20673;-70
2022/02/07 00:30:33;;;;;;;;;;;;;;;;;;4786204;28;19921;-70
2022/02/07 00:32:59;;;;;;;;;;;;;;;;;;4800278;28;22338;-70
2022/02/07 00:35:25;;;;;;;;;;;;;;;;;;4828124;28;19918;-70
2022/02/07 00:37:52;;;;;;;;;;;;;;;;;;4800198;28;20553;-70
2022/02/07 00:40:42;;;;;;;;;;;;;;;;;;4884317;28;19917;-70
2022/02/07 00:45:57;;;;;;;;;;;;;;;;;;4959252;28;19971;-70
2022/02/07 00:48:24;;;;;;;;;;;;;;;;;;4835540;28;20055;-69
2022/02/07 00:50:50;;;;;;;;;;;;;;;;;;4793197;28;19922;-69
2022/02/07 00:53:16;;;;;;;;;;;;;;;;;;4792770;28;19925;-70
2022/02/07 00:55:42;;;;;;;;;;;;;;;;;;4794302;28;19918;-69
2022/02/07 00:58:08;;;;;;;;;;;;;;;;;;4790804;28;19918;-69
2022/02/07 01:00:34;;;;;;;;;;;;;;;;;;4793168;28;20050;-69
2022/02/07 01:03:00;;;;;;;;;;;;;;;;;;4802783;28;19947;-69
2022/02/07 01:05:26;;;;;;;;;;;;;;;;;;4794503;28;20330;-69
2022/02/07 01:07:52;;;;;;;;;;;;;;;;;;4794400;28;22084;-68
2022/02/07 01:10:25;;;;;;;;;;;;;;;;;;4796836;28;19973;-70
2022/02/07 01:13:12;;;;;;;;;;;;;;;;;;4795698;28;19941;-69
2022/02/07 01:15:52;;;;;;;;;;;;;;;;;;4796330;28;20044;-69
2022/02/07 01:23:54;;;;;;;;;;;;;;;;;;4794536;28;20390;-69
2022/02/07 01:53:49;;;;;;;;;;;;;;;;;;4801820;28;21339;-69
2022/02/07 01:56:15;;;;;;;;;;;;;;;;;;4812053;28;19929;-69
2022/02/07 01:58:42;;;;;;;;;;;;;;;;;;4796748;28;19957;-68
2022/02/07 02:01:09;;;;;;;;;;;;;;;;;;4807681;28;20890;-69
2022/02/07 02:03:35;;;;;;;;;;;;;;;;;;4809951;28;21608;-69
2022/02/07 02:06:00;;;;;;;;;;;;;;;;;;4817766;28;19928;-69
2022/02/07 02:08:26;;;;;;;;;;;;;;;;;;4814069;28;19917;-70
2022/02/07 02:10:57;;;;;;;;;;;;;;;;;;4814870;28;19976;-70
2022/02/07 02:13:27;;;;;;;;;;;;;;;;;;4818003;28;20748;-69
2022/02/07 02:16:06;;;;;;;;;;;;;;;;;;4813606;28;19921;-69
2022/02/07 02:38:10;;;;;;;;;;;;;;;;;;4796256;28;20051;-69
2022/02/07 02:46:06;;;;;;;;;;;;;;;;;;4799840;28;20748;-70
2022/02/07 02:48:36;;;;;;;;;;;;;;;;;;4803296;28;19922;-70
2022/02/07 02:51:07;;;;;;;;;;;;;;;;;;4793925;28;19926;-71
2022/02/07 02:53:48;;;;;;;;;;;;;;;;;;4800373;28;19921;-69
2022/02/07 02:56:14;;;;;;;;;;;;;;;;;;4795571;28;19918;-69
2022/02/07 02:58:40;;;;;;;;;;;;;;;;;;4798892;28;20012;-69
2022/02/07 03:01:06;;;;;;;;;;;;;;;;;;4804578;28;19922;-70
2022/02/07 03:03:32;;;;;;;;;;;;;;;;;;4795233;28;20053;-69
2022/02/07 03:05:58;;;;;;;;;;;;;;;;;;4794514;28;20308;-69
2022/02/07 03:08:44;;;;;;;;;;;;;;;;;;4800493;28;19918;-70
2022/02/07 03:11:22;;;;;;;;;;;;;;;;;;4795109;28;21590;-69
2022/02/07 03:13:52;;;;;;;;;;;;;;;;;;4796245;28;19981;-69
2022/02/07 03:19:03;;;;;;;;;;;;;;;;;;4803016;28;20016;-70
2022/02/07 03:21:29;;;;;;;;;;;;;;;;;;4810902;28;19922;-70
2022/02/07 03:23:55;;;;;;;;;;;;;;;;;;4797142;28;19917;-69
2022/02/07 03:26:21;;;;;;;;;;;;;;;;;;4812123;28;19980;-70
2022/02/07 03:28:48;;;;;;;;;;;;;;;;;;4795205;28;20025;-69
2022/02/07 03:31:14;;;;;;;;;;;;;;;;;;4816615;28;19933;-71
2022/02/07 03:33:41;;;;;;;;;;;;;;;;;;4796403;28;19918;-69
2022/02/07 03:36:07;;;;;;;;;;;;;;;;;;4795272;28;19914;-69
2022/02/07 03:38:33;;;;;;;;;;;;;;;;;;4797041;28;20804;-68
2022/02/07 03:40:59;;;;;;;;;;;;;;;;;;4797172;28;21628;-69
2022/02/07 03:43:25;;;;;;;;;;;;;;;;;;4796762;28;19918;-69
2022/02/07 03:45:50;;;;;;;;;;;;;;;;;;4799018;28;19932;-69
2022/02/07 03:48:16;;;;;;;;;;;;;;;;;;4799363;28;20852;-69
2022/02/07 03:50:42;;;;;;;;;;;;;;;;;;4805295;28;20494;-69
2022/02/07 03:53:08;;;;;;;;;;;;;;;;;;4805689;28;20094;-69
2022/02/07 03:55:35;;;;;;;;;;;;;;;;;;4813422;28;21363;-70
2022/02/07 03:58:02;;;;;;;;;;;;;;;;;;4804504;28;20005;-70
2022/02/07 04:00:28;;;;;;;;;;;;;;;;;;4813313;28;19945;-69
2022/02/07 04:02:57;;;;;;;;;;;;;;;;;;4788203;28;20606;-69
2022/02/07 04:07:49;;;;;;;;;;;;;;;;;;4803508;28;20025;-69
2022/02/07 04:10:15;;;;;;;;;;;;;;;;;;4813988;28;19921;-69
2022/02/07 04:12:48;;;;;;;;;;;;;;;;;;4796445;28;20367;-68
2022/02/07 04:15:17;;;;;;;;;;;;;;;;;;4807796;28;20008;-69
2022/02/07 04:17:48;;;;;;;;;;;;;;;;;;4814908;28;20449;-70
2022/02/07 04:20:16;;;;;;;;;;;;;;;;;;4786711;28;19976;-69
2022/02/07 04:22:43;;;;;;;;;;;;;;;;;;4796425;28;20040;-69
2022/02/07 04:25:09;;;;;;;;;;;;;;;;;;4805334;28;20580;-69
2022/02/07 04:27:35;;;;;;;;;;;;;;;;;;4805284;28;20540;-69
2022/02/07 04:30:01;;;;;;;;;;;;;;;;;;4806995;28;22852;-69
2022/02/07 04:32:27;;;;;;;;;;;;;;;;;;4814995;28;22330;-69
2022/02/07 04:34:53;;;;;;;;;;;;;;;;;;4786573;28;19980;-69
2022/02/07 04:37:19;;;;;;;;;;;;;;;;;;4809477;28;20728;-68
2022/02/07 04:39:45;;;;;;;;;;;;;;;;;;4805410;28;19925;-69
2022/02/07 04:42:13;;;;;;;;;;;;;;;;;;4810893;28;20048;-69
2022/02/07 04:55:41;;;;;;;;;;;;;;;;;;4780973;28;19968;-68
2022/02/07 05:03:56;;;;;;;;;;;;;;;;;;4771002;28;19918;-69
2022/02/07 05:14:38;;;;;;;;;;;;;;;;;;4771800;28;22003;-70
2022/02/07 05:17:08;;;;;;;;;;;;;;;;;;4770861;28;20646;-68
2022/02/07 05:19:34;;;;;;;;;;;;;;;;;;4775058;28;20429;-69
2022/02/07 05:22:00;;;;;;;;;;;;;;;;;;4768821;28;21350;-70
2022/02/07 05:24:26;;;;;;;;;;;;;;;;;;4772107;28;19918;-70
2022/02/07 05:26:51;;;;;;;;;;;;;;;;;;4770374;28;20656;-70
2022/02/07 05:29:18;;;;;;;;;;;;;;;;;;4771136;28;21310;-68
2022/02/07 05:31:44;;;;;;;;;;;;;;;;;;4774995;28;20055;-69
2022/02/07 05:34:10;;;;;;;;;;;;;;;;;;4766092;28;20637;-69
2022/02/07 05:36:42;;;;;;;;;;;;;;;;;;4770042;28;21469;-69
2022/02/07 05:39:08;;;;;;;;;;;;;;;;;;4769531;28;19918;-69
2022/02/07 05:41:35;;;;;;;;;;;;;;;;;;4804030;28;20041;-71
2022/02/07 05:44:01;;;;;;;;;;;;;;;;;;4789330;28;19929;-69
2022/02/07 05:46:27;;;;;;;;;;;;;;;;;;4797834;28;19988;-70
2022/02/07 05:48:53;;;;;;;;;;;;;;;;;;4804088;28;20082;-70
2022/02/07 05:51:19;;;;;;;;;;;;;;;;;;4797101;28;19921;-70
2022/02/07 05:53:45;;;;;;;;;;;;;;;;;;4818692;28;20688;-69
2022/02/07 05:56:11;;;;;;;;;;;;;;;;;;4821822;28;21578;-69
2022/02/07 05:58:37;;;;;;;;;;;;;;;;;;4815902;28;20012;-69
2022/02/07 06:01:03;;;;;;;;;;;;;;;;;;4816997;28;19960;-69
2022/02/07 06:03:29;;;;;;;;;;;;;;;;;;4822010;28;19917;-69
2022/02/07 06:05:55;;;;;;;;;;;;;;;;;;4816720;28;19918;-69
2022/02/07 06:08:22;;;;;;;;;;;;;;;;;;4828308;28;20028;-69
2022/02/07 06:10:48;;;;;;;;;;;;;;;;;;4799319;28;20646;-69
2022/02/07 06:13:16;;;;;;;;;;;;;;;;;;4815798;28;19917;-69
2022/02/07 06:15:42;;;;;;;;;;;;;;;;;;4798113;28;19921;-69
2022/02/07 06:18:12;;;;;;;;;;;;;;;;;;4813325;28;19917;-69
2022/02/07 06:20:40;;;;;;;;;;;;;;;;;;4818418;28;20008;-69
2022/02/07 06:23:06;;;;;;;;;;;;;;;;;;4818400;28;21430;-69
2022/02/07 06:25:32;;;;;;;;;;;;;;;;;;4816009;28;19967;-70
2022/02/07 06:27:58;;;;;;;;;;;;;;;;;;4814290;28;20638;-69
2022/02/07 06:30:24;;;;;;;;;;;;;;;;;;4814358;28;20610;-69
2022/02/07 06:32:50;;;;;;;;;;;;;;;;;;4814940;28;19917;-69
2022/02/07 06:35:17;;;;;;;;;;;;;;;;;;4817359;28;20630;-69
2022/02/07 06:37:43;;;;;;;;;;;;;;;;;;4817200;28;20680;-69
2022/02/07 06:40:09;;;;;;;;;;;;;;;;;;4817974;28;20530;-69
2022/02/07 06:42:35;;;;;;;;;;;;;;;;;;4817014;28;20088;-69
2022/02/07 06:45:03;;;;;;;;;;;;;;;;;;4819953;28;19929;-70
2022/02/07 06:47:29;;;;;;;;;;;;;;;;;;4816589;28;20767;-70
2022/02/07 06:49:55;;;;;;;;;;;;;;;;;;4813103;28;19949;-68
2022/02/07 06:52:21;;;;;;;;;;;;;;;;;;4793007;28;19932;-69
2022/02/07 06:54:47;;;;;;;;;;;;;;;;;;4817745;28;20000;-69
2022/02/07 06:57:15;;;;;;;;;;;;;;;;;;4816808;28;19922;-68
2022/02/07 06:59:44;;;;;;;;;;;;;;;;;;4813788;28;19982;-69
2022/02/07 07:02:11;;;;;;;;;;;;;;;;;;4825744;28;20007;-69
2022/02/07 07:04:37;;;;;;;;;;;;;;;;;;4834659;28;19924;-69
2022/02/07 07:07:04;;;;;;;;;;;;;;;;;;4812370;28;20791;-69
2022/02/07 07:09:32;;;;;;;;;;;;;;;;;;4814726;28;19918;-69
2022/02/07 07:12:03;;;;;;;;;;;;;;;;;;4814177;28;20751;-69
2022/02/07 07:14:32;;;;;;;;;;;;;;;;;;4828000;28;19924;-68
2022/02/07 07:16:58;;;;;;;;;;;;;;;;;;4815104;28;19918;-68
2022/02/07 07:19:28;;;;;;;;;;;;;;;;;;4815495;28;19917;-69
2022/02/07 07:21:54;;;;;;;;;;;;;;;;;;4789559;28;19917;-69
2022/02/07 07:24:20;;;;;;;;;;;;;;;;;;4797566;28;20012;-69
2022/02/07 07:26:46;;;;;;;;;;;;;;;;;;4813125;28;20874;-69
2022/02/07 07:29:17;;;;;;;;;;;;;;;;;;4811750;28;19948;-70
2022/02/07 07:31:48;;;;;;;;;;;;;;;;;;4790239;28;19922;-69
2022/02/07 07:34:16;;;;;;;;;;;;;;;;;;4816103;28;20012;-69
2022/02/07 07:36:42;;;;;;;;;;;;;;;;;;4798110;28;19917;-69
2022/02/07 07:39:08;;;;;;;;;;;;;;;;;;4820450;28;20666;-70
2022/02/07 07:41:34;;;;;;;;;;;;;;;;;;4814852;28;19918;-70
2022/02/07 07:44:00;;;;;;;;;;;;;;;;;;4808907;28;20230;-70
2022/02/07 07:46:29;;;;;;;;;;;;;;;;;;4813699;28;21096;-69
2022/02/07 07:49:04;;;;;;;;;;;;;;;;;;4811573;28;19932;-69
2022/02/07 07:51:47;;;;;;;;;;;;;;;;;;4818429;28;19990;-69
2022/02/07 08:02:35;;;;;;;;;;;;;;;;;;4753967;29;19982;-69
2022/02/07 08:05:09;;;;;;;;;;;;;;;;;;4750398;29;19919;-69
2022/02/07 08:07:38;;;;;;;;;;;;;;;;;;4754345;29;20653;-69
2022/02/07 08:10:27;;;;;;;;;;;;;;;;;;4748308;28;19999;-69
2022/02/07 08:12:53;;;;;;;;;;;;;;;;;;4752080;29;21733;-69
2022/02/07 08:15:19;;;;;;;;;;;;;;;;;;4754695;29;20276;-70
2022/02/07 08:17:45;;;;;;;;;;;;;;;;;;4749071;29;20554;-70
2022/02/07 08:20:11;;;;;;;;;;;;;;;;;;4757231;29;19923;-69
2022/02/07 08:22:37;;;;;;;;;;;;;;;;;;4756271;29;20029;-69
2022/02/07 08:25:03;;;;;;;;;;;;;;;;;;4756685;29;19929;-69
2022/02/07 08:27:29;;;;;;;;;;;;;;;;;;4751763;29;19927;-69
2022/02/07 08:29:55;;;;;;;;;;;;;;;;;;4754448;29;19951;-70
2022/02/07 08:32:21;;;;;;;;;;;;;;;;;;4752470;29;20018;-70
2022/02/07 08:34:47;;;;;;;;;;;;;;;;;;4804237;28;19957;-69
2022/02/07 08:37:13;;;;;;;;;;;;;;;;;;4804065;28;19918;-69
2022/02/07 08:39:42;;;;;;;;;;;;;;;;;;4822485;28;19961;-70
2022/02/07 08:42:08;;;;;;;;;;;;;;;;;;4815191;28;19921;-70
2022/02/07 08:44:34;;;;;;;;;;;;;;;;;;4821464;28;20263;-69
2022/02/07 08:47:01;;;;;;;;;;;;;;;;;;4822677;28;19953;-69
2022/02/07 08:49:27;;;;;;;;;;;;;;;;;;4805408;28;19930;-69
2022/02/07 08:51:53;;;;;;;;;;;;;;;;;;4820328;28;19928;-69
2022/02/07 08:54:23;;;;;;;;;;;;;;;;;;4818858;28;19928;-70
2022/02/07 08:57:00;;;;;;;;;;;;;;;;;;4815611;28;19928;-69
2022/02/07 08:59:38;;;;;;;;;;;;;;;;;;4823565;28;20620;-69
2022/02/07 09:05:33;;;;;;;;;;;;;;;;;;4818514;28;19917;-69
2022/02/07 09:07:23;;;;;;;;;;;;;;;;;;4824038;28;19918;-69
2022/02/07 09:09:49;;;;;;;;;;;;;;;;;;4821393;28;19918;-71
2022/02/07 09:12:15;;;;;;;;;;;;;;;;;;4822307;28;21587;-70
2022/02/07 09:14:57;;;;;;;;;;;;;;;;;;4816970;28;20056;-71
2022/02/07 09:17:23;;;;;;;;;;;;;;;;;;4815872;28;20638;-70
2022/02/07 09:19:49;;;;;;;;;;;;;;;;;;4814355;28;20001;-70
2022/02/07 09:22:15;;;;;;;;;;;;;;;;;;4822071;28;20669;-70
2022/02/07 09:24:41;;;;;;;;;;;;;;;;;;4811403;28;19961;-69
2022/02/07 09:27:07;;;;;;;;;;;;;;;;;;4814254;28;20166;-70
2022/02/07 09:29:33;;;;;;;;;;;;;;;;;;4813385;28;22548;-68
2022/02/07 09:32:02;;;;;;;;;;;;;;;;;;4819465;28;20568;-68
2022/02/07 09:34:28;;;;;;;;;;;;;;;;;;4816447;28;20289;-70
2022/02/07 09:36:54;;;;;;;;;;;;;;;;;;4819004;28;21461;-70
2022/02/07 09:39:23;;;;;;;;;;;;;;;;;;4811682;28;19921;-70
2022/02/07 09:41:52;;;;;;;;;;;;;;;;;;4818299;28;20024;-69
2022/02/07 09:44:18;;;;;;;;;;;;;;;;;;4820987;28;19918;-72
2022/02/07 09:46:44;;;;;;;;;;;;;;;;;;4815429;28;20015;-69
2022/02/07 09:49:10;;;;;;;;;;;;;;;;;;4804356;28;20056;-69
2022/02/07 09:51:36;;;;;;;;;;;;;;;;;;4808089;28;20111;-70
2022/02/07 09:54:02;;;;;;;;;;;;;;;;;;4809600;28;20015;-71
2022/02/07 09:56:28;;;;;;;;;;;;;;;;;;4809418;28;20203;-70
2022/02/07 09:58:54;;;;;;;;;;;;;;;;;;4805863;28;19932;-71
2022/02/07 10:01:28;;;;;;;;;;;;;;;;;;4810427;28;19941;-71
2022/02/07 10:04:02;;;;;;;;;;;;;;;;;;4808470;28;19918;-71
2022/02/07 10:09:15;;;;;;;;;;;;;;;;;;4806868;28;19918;-70
2022/02/07 10:11:55;;;;;;;;;;;;;;;;;;4792404;28;19931;-70
2022/02/07 10:14:30;;;;;;;;;;;;;;;;;;4808823;28;21068;-70
2022/02/07 10:37:51;;;;;;;;;;;;;;;;;;4752849;29;20018;-71
2022/02/07 10:39:35;;;;;;;;;;;;;;;;;;4743177;29;19926;-71
2022/02/07 10:42:31;;;;;;;;;;;;;;;;;;4757627;29;19926;-70
2022/02/07 10:45:01;;;;;;;;;;;;;;;;;;4745402;29;20795;-71
2022/02/07 10:47:32;;;;;;;;;;;;;;;;;;4747897;29;19930;-70
2022/02/07 10:49:58;;;;;;;;;;;;;;;;;;4736923;29;20004;-70
2022/02/07 10:52:24;;;;;;;;;;;;;;;;;;4740956;29;19958;-70
2022/02/07 10:54:50;;;;;;;;;;;;;;;;;;4738409;29;20484;-70
2022/02/07 10:57:16;;;;;;;;;;;;;;;;;;4758451;29;20093;-70
2022/02/07 10:59:42;;;;;;;;;;;;;;;;;;4767806;29;19918;-68
2022/02/07 11:04:41;;;;;;;;;;;;;;;;;;4802217;28;20000;-68
2022/02/07 11:07:10;;;;;;;;;;;;;;;;;;4802724;28;19924;-68
2022/02/07 11:10:05;;;;;;;;;;;;;;;;;;4798093;28;20593;-68
2022/02/07 11:23:02;;;;;;;;;;;;;;;;;;4762905;29;20610;-68
2022/02/07 11:25:43;;;;;;;;;;;;;;;;;;4767358;29;19923;-68
2022/02/07 11:28:10;;;;;;;;;;;;;;;;;;4756952;29;20094;-69
2022/02/07 11:30:37;;;;;;;;;;;;;;;;;;4759769;29;22424;-69
2022/02/07 11:33:05;;;;;;;;;;;;;;;;;;4758736;29;20655;-68
2022/02/07 11:35:31;;;;;;;;;;;;;;;;;;4759595;29;19918;-68
2022/02/07 11:37:57;;;;;;;;;;;;;;;;;;4753194;29;20583;-68
2022/02/07 11:40:23;;;;;;;;;;;;;;;;;;4761842;29;20044;-68
2022/02/07 11:42:49;;;;;;;;;;;;;;;;;;4758336;29;21665;-68
2022/02/07 11:45:15;;;;;;;;;;;;;;;;;;4753714;29;19926;-69
2022/02/07 11:47:42;;;;;;;;;;;;;;;;;;4765878;28;19997;-68
2022/02/07 11:50:08;;;;;;;;;;;;;;;;;;4770996;28;19918;-68
2022/02/07 11:52:35;;;;;;;;;;;;;;;;;;4777370;28;19940;-68
2022/02/07 11:55:01;;;;;;;;;;;;;;;;;;4817740;28;19960;-68
2022/02/07 11:57:27;;;;;;;;;;;;;;;;;;4796007;28;19922;-68
2022/02/07 11:59:53;;;;;;;;;;;;;;;;;;4809540;28;20674;-68
2022/02/07 12:02:20;;;;;;;;;;;;;;;;;;4820842;28;20011;-68
2022/02/07 12:04:46;;;;;;;;;;;;;;;;;;4811465;28;19988;-68
2022/02/07 12:07:12;;;;;;;;;;;;;;;;;;4812757;28;19918;-68
2022/02/07 12:09:38;;;;;;;;;;;;;;;;;;4817117;28;20633;-68
2022/02/07 12:12:04;;;;;;;;;;;;;;;;;;4813454;28;19926;-68
2022/02/07 12:14:30;;;;;;;;;;;;;;;;;;4814943;28;20072;-68
2022/02/07 12:16:56;;;;;;;;;;;;;;;;;;4813452;28;19918;-69
2022/02/07 12:19:22;;;;;;;;;;;;;;;;;;4816486;28;19945;-69
2022/02/07 12:21:48;;;;;;;;;;;;;;;;;;4810860;28;20462;-69
2022/02/07 12:24:16;;;;;;;;;;;;;;;;;;4820352;28;19917;-68
2022/02/07 12:26:43;;;;;;;;;;;;;;;;;;4819610;28;19960;-69
2022/02/07 12:29:20;;;;;;;;;;;;;;;;;;4810576;28;21381;-69
2022/02/07 12:31:46;;;;;;;;;;;;;;;;;;4819145;28;20648;-69
2022/02/07 12:34:15;;;;;;;;;;;;;;;;;;4819099;28;20580;-69
2022/02/07 12:36:41;;;;;;;;;;;;;;;;;;4812049;28;20124;-68
2022/02/07 12:39:07;;;;;;;;;;;;;;;;;;4822343;28;20673;-68
2022/02/07 12:41:33;;;;;;;;;;;;;;;;;;4829312;28;21429;-67
2022/02/07 12:43:59;;;;;;;;;;;;;;;;;;4818391;28;20695;-68
2022/02/07 12:46:26;;;;;;;;;;;;;;;;;;4830783;28;19917;-67
2022/02/07 12:49:01;;;;;;;;;;;;;;;;;;4821986;28;19937;-67
2022/02/07 12:51:27;;;;;;;;;;;;;;;;;;4800865;28;20045;-70
2022/02/07 12:53:53;;;;;;;;;;;;;;;;;;4798443;28;20684;-70
2022/02/07 12:56:19;;;;;;;;;;;;;;;;;;4803308;28;19941;-70
2022/02/07 12:58:45;;;;;;;;;;;;;;;;;;4798308;28;19925;-69
2022/02/07 13:01:11;;;;;;;;;;;;;;;;;;4804549;28;20158;-72
2022/02/07 13:03:37;;;;;;;;;;;;;;;;;;4803492;28;19921;-68
2022/02/07 13:06:03;;;;;;;;;;;;;;;;;;4798029;28;19924;-68
2022/02/07 13:08:30;;;;;;;;;;;;;;;;;;4802148;28;19918;-68
2022/02/07 13:10:56;;;;;;;;;;;;;;;;;;4798345;28;19999;-68
2022/02/07 13:13:38;;;;;;;;;;;;;;;;;;4798520;28;19953;-68
2022/02/07 13:16:04;;;;;;;;;;;;;;;;;;4799507;28;19914;-69
2022/02/07 13:18:33;;;;;;;;;;;;;;;;;;4818705;28;19950;-70
2022/02/07 13:21:00;;;;;;;;;;;;;;;;;;4808557;28;20622;-70
2022/02/07 13:23:26;;;;;;;;;;;;;;;;;;4805293;28;19941;-68
2022/02/07 13:25:53;;;;;;;;;;;;;;;;;;4818215;28;20655;-68
2022/02/07 13:28:19;;;;;;;;;;;;;;;;;;4800304;28;20078;-70
2022/02/07 13:30:45;;;;;;;;;;;;;;;;;;4802034;28;20279;-69
2022/02/07 13:33:11;;;;;;;;;;;;;;;;;;4802041;28;21708;-68
2022/02/07 13:35:39;;;;;;;;;;;;;;;;;;4809213;28;19918;-69
2022/02/07 13:38:06;;;;;;;;;;;;;;;;;;4796709;28;19925;-69
2022/02/07 13:40:32;;;;;;;;;;;;;;;;;;4804735;28;19945;-67
2022/02/07 13:42:58;;;;;;;;;;;;;;;;;;4801197;28;20130;-67
2022/02/07 13:45:25;;;;;;;;;;;;;;;;;;4798039;28;19955;-68
2022/02/07 13:47:51;;;;;;;;;;;;;;;;;;4802452;28;19973;-68
2022/02/07 13:50:17;;;;;;;;;;;;;;;;;;4826135;28;19996;-69
2022/02/07 13:52:43;;;;;;;;;;;;;;;;;;4816577;28;20553;-68
2022/02/07 13:55:09;;;;;;;;;;;;;;;;;;4810659;28;19925;-68
2022/02/07 13:57:35;;;;;;;;;;;;;;;;;;4817702;28;19921;-68
2022/02/07 14:00:01;;;;;;;;;;;;;;;;;;4797914;28;21693;-69
2022/02/07 14:02:29;;;;;;;;;;;;;;;;;;4819960;28;22004;-68
2022/02/07 14:04:55;;;;;;;;;;;;;;;;;;4818090;28;20759;-70
2022/02/07 14:07:21;;;;;;;;;;;;;;;;;;4818079;28;20295;-70
2022/02/07 14:09:47;;;;;;;;;;;;;;;;;;4814076;28;19972;-70
2022/02/07 14:12:14;;;;;;;;;;;;;;;;;;4815010;28;21627;-69
2022/02/07 14:14:40;;;;;;;;;;;;;;;;;;4817304;28;19927;-70
2022/02/07 14:17:06;;;;;;;;;;;;;;;;;;4818510;28;19918;-70
2022/02/07 14:19:32;;;;;;;;;;;;;;;;;;4820069;28;19925;-70
2022/02/07 14:21:58;;;;;;;;;;;;;;;;;;4823456;28;19918;-70
2022/02/07 14:24:27;;;;;;;;;;;;;;;;;;4818416;28;19918;-69
2022/02/07 14:26:53;;;;;;;;;;;;;;;;;;4811058;28;19932;-69
2022/02/07 14:29:19;;;;;;;;;;;;;;;;;;4816396;28;19918;-69
2022/02/07 14:31:45;;;;;;;;;;;;;;;;;;4818680;28;20612;-67
2022/02/07 14:34:11;;;;;;;;;;;;;;;;;;4812860;28;19918;-67
2022/02/07 14:36:38;;;;;;;;;;;;;;;;;;4819022;28;19918;-67
2022/02/07 14:39:04;;;;;;;;;;;;;;;;;;4814349;28;21780;-67
2022/02/07 14:41:30;;;;;;;;;;;;;;;;;;4825107;28;19921;-67
2022/02/07 14:44:01;;;;;;;;;;;;;;;;;;4817141;28;20609;-67
2022/02/07 14:46:33;;;;;;;;;;;;;;;;;;4822103;28;22105;-67
2022/02/07 14:49:00;;;;;;;;;;;;;;;;;;4809931;28;20204;-67
2022/02/07 14:51:26;;;;;;;;;;;;;;;;;;4813847;28;19922;-67
2022/02/07 14:53:52;;;;;;;;;;;;;;;;;;4818841;28;19917;-67
2022/02/07 14:56:18;;;;;;;;;;;;;;;;;;4801657;28;19921;-67
2022/02/07 14:58:44;;;;;;;;;;;;;;;;;;4811930;28;20669;-67
2022/02/07 15:01:10;;;;;;;;;;;;;;;;;;4821894;28;21210;-67
2022/02/07 15:03:36;;;;;;;;;;;;;;;;;;4809331;28;19983;-67
2022/02/07 15:06:03;;;;;;;;;;;;;;;;;;4811596;28;19917;-67
2022/02/07 15:08:29;;;;;;;;;;;;;;;;;;4819005;28;20073;-68
2022/02/07 15:10:55;;;;;;;;;;;;;;;;;;4812287;28;20016;-68
2022/02/07 15:13:22;;;;;;;;;;;;;;;;;;4811537;28;19918;-67
2022/02/07 15:15:48;;;;;;;;;;;;;;;;;;4809708;28;19918;-67
2022/02/07 15:18:17;;;;;;;;;;;;;;;;;;4814177;28;20607;-67
2022/02/07 15:20:43;;;;;;;;;;;;;;;;;;4815538;28;19982;-67
2022/02/07 15:23:10;;;;;;;;;;;;;;;;;;4822886;28;20965;-68
2022/02/07 15:25:38;;;;;;;;;;;;;;;;;;4806752;28;19932;-67
2022/02/07 15:28:04;;;;;;;;;;;;;;;;;;4807319;28;19973;-67
2022/02/07 15:30:41;;;;;;;;;;;;;;;;;;4825338;28;19918;-67
2022/02/07 15:33:09;;;;;;;;;;;;;;;;;;4809779;28;20020;-68
2022/02/07 15:35:37;;;;;;;;;;;;;;;;;;4813281;28;19918;-67
2022/02/07 15:38:03;;;;;;;;;;;;;;;;;;4814219;28;19918;-67
2022/02/07 15:40:29;;;;;;;;;;;;;;;;;;4816437;28;20533;-68
2022/02/07 15:42:56;;;;;;;;;;;;;;;;;;4811225;28;22092;-67
2022/02/07 15:45:23;;;;;;;;;;;;;;;;;;4812579;28;19918;-66
2022/02/07 15:47:49;;;;;;;;;;;;;;;;;;4811230;28;19925;-67
2022/02/07 15:50:15;;;;;;;;;;;;;;;;;;4814457;28;19922;-68
2022/02/07 15:52:41;;;;;;;;;;;;;;;;;;4820224;28;20020;-68
2022/02/07 15:55:07;;;;;;;;;;;;;;;;;;4795214;28;19918;-67
2022/02/07 15:57:34;;;;;;;;;;;;;;;;;;4795603;28;20000;-67
2022/02/07 16:00:01;;;;;;;;;;;;;;;;;;4794096;28;19918;-67
2022/02/07 16:02:31;;;;;;;;;;;;;;;;;;4788176;28;20683;-67
2022/02/07 16:04:57;;;;;;;;;;;;;;;;;;4793061;28;19918;-68
2022/02/07 16:07:23;;;;;;;;;;;;;;;;;;4795821;28;19956;-68
2022/02/07 16:09:50;;;;;;;;;;;;;;;;;;4813513;28;19940;-67
2022/02/07 16:12:18;;;;;;;;;;;;;;;;;;4810612;28;19925;-67
2022/02/07 16:14:44;;;;;;;;;;;;;;;;;;4816057;28;19921;-67
2022/02/07 16:17:10;;;;;;;;;;;;;;;;;;4806825;28;19940;-67
2022/02/07 16:19:36;;;;;;;;;;;;;;;;;;4798179;28;19917;-67
2022/02/07 16:22:03;;;;;;;;;;;;;;;;;;4820468;28;20008;-67
2022/02/07 16:24:29;;;;;;;;;;;;;;;;;;4819772;28;19918;-67
2022/02/07 16:26:55;;;;;;;;;;;;;;;;;;4803641;28;20126;-67
2022/02/07 16:29:21;;;;;;;;;;;;;;;;;;4824170;28;20625;-66
2022/02/07 16:31:47;;;;;;;;;;;;;;;;;;4814738;28;19922;-67
2022/02/07 16:34:16;;;;;;;;;;;;;;;;;;4823398;28;19924;-66
2022/02/07 16:36:42;;;;;;;;;;;;;;;;;;4826125;28;20299;-67
2022/02/07 16:39:08;;;;;;;;;;;;;;;;;;4820566;28;19918;-67
2022/02/07 16:41:36;;;;;;;;;;;;;;;;;;4827137;28;19914;-66
2022/02/07 16:44:02;;;;;;;;;;;;;;;;;;4800440;28;19960;-67
2022/02/07 16:46:36;;;;;;;;;;;;;;;;;;4805301;28;19914;-67
2022/02/07 16:49:03;;;;;;;;;;;;;;;;;;4815194;28;21813;-67
2022/02/07 16:51:33;;;;;;;;;;;;;;;;;;4808737;28;19922;-66
2022/02/07 16:54:00;;;;;;;;;;;;;;;;;;4797634;28;19918;-67
2022/02/07 16:56:27;;;;;;;;;;;;;;;;;;4808874;28;19925;-67
2022/02/07 16:58:53;;;;;;;;;;;;;;;;;;4795730;28;20000;-68
2022/02/07 17:01:19;;;;;;;;;;;;;;;;;;4796494;28;20028;-67
2022/02/07 17:03:45;;;;;;;;;;;;;;;;;;4799358;28;19918;-67
2022/02/07 17:06:11;;;;;;;;;;;;;;;;;;4798156;28;19914;-67
2022/02/07 17:08:37;;;;;;;;;;;;;;;;;;4794046;28;19940;-67
2022/02/07 17:11:05;;;;;;;;;;;;;;;;;;4799252;28;19921;-67
2022/02/07 17:13:31;;;;;;;;;;;;;;;;;;4794177;28;20012;-66
2022/02/07 17:15:57;;;;;;;;;;;;;;;;;;4796047;28;19933;-67
2022/02/07 17:18:26;;;;;;;;;;;;;;;;;;4801034;28;21698;-66
2022/02/07 17:20:52;;;;;;;;;;;;;;;;;;4794686;28;21129;-67
2022/02/07 17:23:18;;;;;;;;;;;;;;;;;;4797556;28;19918;-66
2022/02/07 17:25:46;;;;;;;;;;;;;;;;;;4807714;28;20794;-66
2022/02/07 17:28:12;;;;;;;;;;;;;;;;;;4802479;28;19944;-68
2022/02/07 17:30:40;;;;;;;;;;;;;;;;;;4784551;28;19980;-68
2022/02/07 17:33:06;;;;;;;;;;;;;;;;;;4796900;28;19981;-67
2022/02/07 17:35:32;;;;;;;;;;;;;;;;;;4797299;28;20038;-67
2022/02/07 17:37:58;;;;;;;;;;;;;;;;;;4788723;28;19928;-70
2022/02/07 17:40:24;;;;;;;;;;;;;;;;;;4803110;28;20641;-67
2022/02/07 17:42:50;;;;;;;;;;;;;;;;;;4799235;28;19918;-67
2022/02/07 17:45:16;;;;;;;;;;;;;;;;;;4796372;28;19918;-67
2022/02/07 17:47:42;;;;;;;;;;;;;;;;;;4801028;28;20130;-67
2022/02/07 17:50:08;;;;;;;;;;;;;;;;;;4815101;28;20653;-67
2022/02/07 17:52:34;;;;;;;;;;;;;;;;;;4811113;28;19921;-67
2022/02/07 17:55:01;;;;;;;;;;;;;;;;;;4816109;28;20049;-67
2022/02/07 17:57:27;;;;;;;;;;;;;;;;;;4797657;28;20557;-67
2022/02/07 17:59:53;;;;;;;;;;;;;;;;;;4816123;28;20153;-67
2022/02/07 18:02:20;;;;;;;;;;;;;;;;;;4816198;28;20012;-67
2022/02/07 18:04:46;;;;;;;;;;;;;;;;;;4821101;28;20569;-66
2022/02/07 18:07:12;;;;;;;;;;;;;;;;;;4803591;28;19959;-67
2022/02/07 18:09:39;;;;;;;;;;;;;;;;;;4815727;28;19924;-67
2022/02/07 18:12:05;;;;;;;;;;;;;;;;;;4818691;28;20442;-66
2022/02/07 18:14:32;;;;;;;;;;;;;;;;;;4813300;28;19917;-66
2022/02/07 18:16:58;;;;;;;;;;;;;;;;;;4811251;28;19956;-66
2022/02/07 18:19:24;;;;;;;;;;;;;;;;;;4819367;28;19972;-67
2022/02/07 18:21:52;;;;;;;;;;;;;;;;;;4810332;28;20019;-67
2022/02/07 18:24:18;;;;;;;;;;;;;;;;;;4817518;28;19918;-66
2022/02/07 18:26:44;;;;;;;;;;;;;;;;;;4818706;28;20019;-69
2022/02/07 18:29:10;;;;;;;;;;;;;;;;;;4811853;28;19918;-68
2022/02/07 18:31:36;;;;;;;;;;;;;;;;;;4827977;28;19927;-68
2022/02/07 18:34:03;;;;;;;;;;;;;;;;;;4813783;28;22027;-68
2022/02/07 18:36:32;;;;;;;;;;;;;;;;;;4815113;28;20706;-68
2022/02/07 18:38:58;;;;;;;;;;;;;;;;;;4815433;28;20565;-68
2022/02/07 18:41:32;;;;;;;;;;;;;;;;;;4800254;28;20616;-68
2022/02/07 18:44:00;;;;;;;;;;;;;;;;;;4810005;28;21566;-68
2022/02/07 18:46:26;;;;;;;;;;;;;;;;;;4825315;28;20214;-68
2022/02/07 18:48:52;;;;;;;;;;;;;;;;;;4792102;28;20500;-68
2022/02/07 18:51:18;;;;;;;;;;;;;;;;;;4792616;28;20695;-68
2022/02/07 18:53:44;;;;;;;;;;;;;;;;;;4797046;28;20337;-68
2022/02/07 18:56:11;;;;;;;;;;;;;;;;;;4793650;28;20247;-68
2022/02/07 18:58:43;;;;;;;;;;;;;;;;;;4799541;28;19952;-68
2022/02/07 19:01:18;;;;;;;;;;;;;;;;;;4789410;28;19972;-68
2022/02/07 19:03:45;;;;;;;;;;;;;;;;;;4799936;28;22763;-68
2022/02/07 19:08:37;;;;;;;;;;;;;;;;;;4796280;28;19996;-68